sensor_id;sensor_type;location;lat;lon;timestamp;pressure;altitude;pressure_sealevel;temperature;humidity
26083;BME280;13848;49.018;12.078;2023-12-28T00:00:10;97878.44;;;3.19;96.56
26083;BME280;13848;49.018;12.078;2023-12-28T00:02:37;97874.09;;;3.10;96.67
26083;BME280;13848;49.018;12.078;2023-12-28T00:05:04;97880.09;;;3.20;97.21
26083;BME280;13848;49.018;12.078;2023-12-28T00:07:30;97878.06;;;3.22;96.43
26083;BME280;13848;49.018;12.078;2023-12-28T00:09:56;97888.41;;;3.17;96.26
26083;BME280;13848;49.018;12.078;2023-12-28T00:12:22;97885.41;;;3.12;96.83
26083;BME280;13848;49.018;12.078;2023-12-28T00:14:48;97882.44;;;3.15;97.16
26083;BME280;13848;49.018;12.078;2023-12-28T00:17:14;97901.75;;;3.09;97.12
26083;BME280;13848;49.018;12.078;2023-12-28T00:19:41;97896.75;;;3.14;96.76
26083;BME280;13848;49.018;12.078;2023-12-28T00:22:07;97900.34;;;3.29;96.62
26083;BME280;13848;49.018;12.078;2023-12-28T00:24:33;97893.38;;;3.28;96.70
26083;BME280;13848;49.018;12.078;2023-12-28T00:26:59;97888.06;;;3.12;96.74
26083;BME280;13848;49.018;12.078;2023-12-28T00:29:24;97888.06;;;3.12;96.72
26083;BME280;13848;49.018;12.078;2023-12-28T00:31:50;97891.91;;;3.09;96.38
26083;BME280;13848;49.018;12.078;2023-12-28T00:34:16;97893.09;;;2.99;97.61
26083;BME280;13848;49.018;12.078;2023-12-28T00:36:44;97896.09;;;2.96;97.97
26083;BME280;13848;49.018;12.078;2023-12-28T00:39:09;97889.13;;;2.86;97.82
26083;BME280;13848;49.018;12.078;2023-12-28T00:41:35;97890.41;;;3.15;97.20
26083;BME280;13848;49.018;12.078;2023-12-28T00:44:01;97885.44;;;3.04;96.62
26083;BME280;13848;49.018;12.078;2023-12-28T00:46:27;97872.78;;;2.89;98.30
26083;BME280;13848;49.018;12.078;2023-12-28T00:48:53;97885.47;;;2.87;98.35
26083;BME280;13848;49.018;12.078;2023-12-28T00:51:19;97881.44;;;3.08;97.57
26083;BME280;13848;49.018;12.078;2023-12-28T00:53:47;97878.13;;;2.89;98.07
26083;BME280;13848;49.018;12.078;2023-12-28T00:56:12;97882.13;;;2.93;98.63
26083;BME280;13848;49.018;12.078;2023-12-28T00:58:39;97879.31;;;2.79;98.87
26083;BME280;13848;49.018;12.078;2023-12-28T01:01:05;97886.97;;;2.82;98.84
26083;BME280;13848;49.018;12.078;2023-12-28T01:03:31;97877.13;;;2.82;98.69
26083;BME280;13848;49.018;12.078;2023-12-28T01:05:56;97883.16;;;2.68;99.60
26083;BME280;13848;49.018;12.078;2023-12-28T01:08:22;97884.47;;;2.80;100.00
26083;BME280;13848;49.018;12.078;2023-12-28T01:10:50;97892.13;;;2.75;99.99
26083;BME280;13848;49.018;12.078;2023-12-28T01:13:16;97893.94;;;2.99;98.73
26083;BME280;13848;49.018;12.078;2023-12-28T01:15:41;97903.44;;;2.77;99.47
26083;BME280;13848;49.018;12.078;2023-12-28T01:18:07;97896.09;;;2.87;99.11
26083;BME280;13848;49.018;12.078;2023-12-28T01:20:33;97890.47;;;2.90;98.52
26083;BME280;13848;49.018;12.078;2023-12-28T01:22:59;97899.94;;;2.93;98.54
26083;BME280;13848;49.018;12.078;2023-12-28T01:25:25;97909.41;;;2.87;98.49
26083;BME280;13848;49.018;12.078;2023-12-28T01:27:52;97912.44;;;2.84;98.68
26083;BME280;13848;49.018;12.078;2023-12-28T01:30:18;97910.41;;;3.03;97.99
26083;BME280;13848;49.018;12.078;2023-12-28T01:32:44;97913.56;;;2.98;97.77
26083;BME280;13848;49.018;12.078;2023-12-28T01:35:10;97913.41;;;2.91;97.81
26083;BME280;13848;49.018;12.078;2023-12-28T01:37:36;97917.09;;;2.90;98.45
26083;BME280;13848;49.018;12.078;2023-12-28T01:40:03;97921.41;;;2.75;99.13
26083;BME280;13848;49.018;12.078;2023-12-28T01:42:29;97910.25;;;2.63;99.01
26083;BME280;13848;49.018;12.078;2023-12-28T01:44:56;97917.09;;;2.90;98.21
26083;BME280;13848;49.018;12.078;2023-12-28T01:47:22;97914.41;;;2.99;96.68
26083;BME280;13848;49.018;12.078;2023-12-28T01:49:48;97925.41;;;2.79;98.07
26083;BME280;13848;49.018;12.078;2023-12-28T01:52:14;97924.06;;;2.91;97.98
26083;BME280;13848;49.018;12.078;2023-12-28T01:54:40;97927.06;;;2.88;98.29
26083;BME280;13848;49.018;12.078;2023-12-28T01:57:06;97929.72;;;2.80;98.75
26083;BME280;13848;49.018;12.078;2023-12-28T01:59:33;97929.91;;;2.79;99.70
26083;BME280;13848;49.018;12.078;2023-12-28T02:02:00;97926.41;;;2.70;99.66
26083;BME280;13848;49.018;12.078;2023-12-28T02:04:26;97927.41;;;2.61;99.73
26083;BME280;13848;49.018;12.078;2023-12-28T02:06:54;97925.75;;;2.68;99.89
26083;BME280;13848;49.018;12.078;2023-12-28T02:09:21;97921.25;;;2.77;99.29
26083;BME280;13848;49.018;12.078;2023-12-28T02:11:47;97920.09;;;2.79;99.61
26083;BME280;13848;49.018;12.078;2023-12-28T02:14:13;97917.41;;;2.87;98.38
26083;BME280;13848;49.018;12.078;2023-12-28T02:16:44;97923.41;;;2.73;99.00
26083;BME280;13848;49.018;12.078;2023-12-28T02:19:24;97931.38;;;2.65;100.00
26083;BME280;13848;49.018;12.078;2023-12-28T02:21:52;97918.75;;;2.91;97.80
26083;BME280;13848;49.018;12.078;2023-12-28T02:24:18;97913.72;;;3.05;96.66
26083;BME280;13848;49.018;12.078;2023-12-28T02:26:45;97918.41;;;3.03;96.55
26083;BME280;13848;49.018;12.078;2023-12-28T02:29:11;97915.09;;;2.92;96.18
26083;BME280;13848;49.018;12.078;2023-12-28T02:31:43;97907.09;;;2.76;98.55
26083;BME280;13848;49.018;12.078;2023-12-28T02:34:15;97897.28;;;2.69;98.87
26083;BME280;13848;49.018;12.078;2023-12-28T02:36:44;97890.97;;;2.61;99.14
26083;BME280;13848;49.018;12.078;2023-12-28T02:39:14;97884.97;;;2.67;98.90
26083;BME280;13848;49.018;12.078;2023-12-28T02:41:40;97884.81;;;2.53;99.74
26083;BME280;13848;49.018;12.078;2023-12-28T02:44:08;97898.44;;;2.58;99.06
26083;BME280;13848;49.018;12.078;2023-12-28T02:46:34;97898.44;;;2.82;98.96
26083;BME280;13848;49.018;12.078;2023-12-28T02:49:00;97898.44;;;2.66;98.98
26083;BME280;13848;49.018;12.078;2023-12-28T02:51:26;97905.44;;;2.67;98.67
26083;BME280;13848;49.018;12.078;2023-12-28T02:53:52;97901.09;;;2.58;98.72
26083;BME280;13848;49.018;12.078;2023-12-28T02:56:18;97890.31;;;2.67;98.66
26083;BME280;13848;49.018;12.078;2023-12-28T02:58:44;97900.78;;;2.61;98.46
26083;BME280;13848;49.018;12.078;2023-12-28T03:01:11;97900.78;;;2.61;98.52
26083;BME280;13848;49.018;12.078;2023-12-28T03:03:37;97896.78;;;2.65;98.94
26083;BME280;13848;49.018;12.078;2023-12-28T03:06:03;97901.44;;;2.47;99.21
26083;BME280;13848;49.018;12.078;2023-12-28T03:08:29;97905.75;;;2.48;100.00
26083;BME280;13848;49.018;12.078;2023-12-28T03:10:55;97913.94;;;2.62;98.47
26083;BME280;13848;49.018;12.078;2023-12-28T03:13:21;97915.09;;;2.76;97.62
26083;BME280;13848;49.018;12.078;2023-12-28T03:15:47;97909.44;;;2.79;96.07
26083;BME280;13848;49.018;12.078;2023-12-28T03:18:14;97910.78;;;2.67;95.19
26083;BME280;13848;49.018;12.078;2023-12-28T03:20:40;97921.06;;;2.54;94.92
26083;BME280;13848;49.018;12.078;2023-12-28T03:23:06;97917.75;;;2.44;94.80
26083;BME280;13848;49.018;12.078;2023-12-28T03:25:32;97912.09;;;2.38;94.61
26083;BME280;13848;49.018;12.078;2023-12-28T03:27:58;97911.41;;;2.28;94.98
26083;BME280;13848;49.018;12.078;2023-12-28T03:30:24;97906.91;;;2.29;96.65
26083;BME280;13848;49.018;12.078;2023-12-28T03:32:50;97906.75;;;2.38;97.42
26083;BME280;13848;49.018;12.078;2023-12-28T03:35:17;97907.00;;;2.03;99.21
26083;BME280;13848;49.018;12.078;2023-12-28T03:37:43;97906.75;;;2.47;97.68
26083;BME280;13848;49.018;12.078;2023-12-28T03:40:10;97910.75;;;2.34;96.95
26083;BME280;13848;49.018;12.078;2023-12-28T03:42:36;97918.56;;;2.44;96.39
26083;BME280;13848;49.018;12.078;2023-12-28T03:45:02;97913.56;;;2.49;96.26
26083;BME280;13848;49.018;12.078;2023-12-28T03:47:28;97925.91;;;2.50;95.46
26083;BME280;13848;49.018;12.078;2023-12-28T03:49:54;97922.38;;;2.42;95.39
26083;BME280;13848;49.018;12.078;2023-12-28T03:52:22;97923.00;;;2.19;94.96
26083;BME280;13848;49.018;12.078;2023-12-28T03:54:48;97933.63;;;2.19;94.60
26083;BME280;13848;49.018;12.078;2023-12-28T03:57:13;97927.94;;;1.98;94.36
26083;BME280;13848;49.018;12.078;2023-12-28T03:59:40;97932.91;;;1.93;96.37
26083;BME280;13848;49.018;12.078;2023-12-28T04:02:06;97926.25;;;1.97;96.06
26083;BME280;13848;49.018;12.078;2023-12-28T04:04:31;97927.25;;;1.96;96.55
26083;BME280;13848;49.018;12.078;2023-12-28T04:06:57;97932.63;;;2.12;95.90
26083;BME280;13848;49.018;12.078;2023-12-28T04:09:25;97918.84;;;2.25;95.68
26083;BME280;13848;49.018;12.078;2023-12-28T04:11:51;97926.47;;;2.11;94.41
26083;BME280;13848;49.018;12.078;2023-12-28T04:14:17;97927.66;;;2.09;95.16
26083;BME280;13848;49.018;12.078;2023-12-28T04:16:42;97923.34;;;2.16;95.49
26083;BME280;13848;49.018;12.078;2023-12-28T04:19:08;97934.28;;;2.13;95.70
26083;BME280;13848;49.018;12.078;2023-12-28T04:21:34;97934.28;;;2.13;96.21
26083;BME280;13848;49.018;12.078;2023-12-28T04:24:00;97934.63;;;2.10;96.45
26083;BME280;13848;49.018;12.078;2023-12-28T04:26:28;97938.28;;;2.09;96.29
26083;BME280;13848;49.018;12.078;2023-12-28T04:28:53;97936.88;;;1.89;97.35
26083;BME280;13848;49.018;12.078;2023-12-28T04:31:20;97937.59;;;1.99;97.06
26083;BME280;13848;49.018;12.078;2023-12-28T04:33:46;97934.38;;;1.87;98.15
26083;BME280;13848;49.018;12.078;2023-12-28T04:36:12;97939.22;;;1.92;98.05
26083;BME280;13848;49.018;12.078;2023-12-28T04:38:38;97938.06;;;1.94;97.41
26083;BME280;13848;49.018;12.078;2023-12-28T04:41:04;97940.56;;;1.96;98.34
26083;BME280;13848;49.018;12.078;2023-12-28T04:43:31;97942.50;;;1.85;97.27
26083;BME280;13848;49.018;12.078;2023-12-28T04:45:57;97941.19;;;1.90;98.18
26083;BME280;13848;49.018;12.078;2023-12-28T04:48:27;97947.41;;;1.98;97.76
26083;BME280;13848;49.018;12.078;2023-12-28T04:50:53;97951.84;;;1.90;97.39
26083;BME280;13848;49.018;12.078;2023-12-28T04:53:19;97942.06;;;1.98;98.09
26083;BME280;13848;49.018;12.078;2023-12-28T04:55:45;97938.72;;;1.88;96.88
26083;BME280;13848;49.018;12.078;2023-12-28T04:58:11;97947.44;;;1.72;97.69
26083;BME280;13848;49.018;12.078;2023-12-28T05:00:39;97948.31;;;1.47;99.35
26083;BME280;13848;49.018;12.078;2023-12-28T05:03:05;97951.19;;;1.53;100.00
26083;BME280;13848;49.018;12.078;2023-12-28T05:05:30;97954.41;;;1.65;98.67
26083;BME280;13848;49.018;12.078;2023-12-28T05:07:56;97947.72;;;1.61;98.89
26083;BME280;13848;49.018;12.078;2023-12-28T05:10:22;97952.38;;;1.59;99.25
26083;BME280;13848;49.018;12.078;2023-12-28T05:12:48;97948.72;;;1.60;99.21
26083;BME280;13848;49.018;12.078;2023-12-28T05:15:14;97946.66;;;1.46;99.27
26083;BME280;13848;49.018;12.078;2023-12-28T05:17:42;97945.94;;;1.36;100.00
26083;BME280;13848;49.018;12.078;2023-12-28T05:20:08;97945.31;;;1.42;100.00
26083;BME280;13848;49.018;12.078;2023-12-28T05:22:34;97949.69;;;1.25;100.00
26083;BME280;13848;49.018;12.078;2023-12-28T05:25:00;97950.84;;;1.22;100.00
26083;BME280;13848;49.018;12.078;2023-12-28T05:27:26;97962.13;;;1.24;100.00
26083;BME280;13848;49.018;12.078;2023-12-28T05:29:52;97947.63;;;1.11;100.00
26083;BME280;13848;49.018;12.078;2023-12-28T05:32:18;97952.06;;;1.10;100.00
26083;BME280;13848;49.018;12.078;2023-12-28T05:34:45;97940.84;;;1.16;100.00
26083;BME280;13848;49.018;12.078;2023-12-28T05:37:11;97940.41;;;1.03;100.00
26083;BME280;13848;49.018;12.078;2023-12-28T05:39:37;97943.44;;;1.08;100.00
26083;BME280;13848;49.018;12.078;2023-12-28T05:42:03;97943.34;;;1.18;100.00
26083;BME280;13848;49.018;12.078;2023-12-28T05:44:29;97948.91;;;1.06;100.00
26083;BME280;13848;49.018;12.078;2023-12-28T05:46:55;97945.09;;;1.09;100.00
26083;BME280;13848;49.018;12.078;2023-12-28T05:49:21;97943.81;;;1.13;100.00
26083;BME280;13848;49.018;12.078;2023-12-28T05:51:48;97946.03;;;1.00;100.00
26083;BME280;13848;49.018;12.078;2023-12-28T05:54:14;97952.84;;;1.02;100.00
26083;BME280;13848;49.018;12.078;2023-12-28T05:56:40;97950.44;;;0.91;100.00
26083;BME280;13848;49.018;12.078;2023-12-28T05:59:06;97953.00;;;1.01;100.00
26083;BME280;13848;49.018;12.078;2023-12-28T06:01:32;97955.00;;;0.99;100.00
26083;BME280;13848;49.018;12.078;2023-12-28T06:03:58;97954.75;;;0.92;100.00
26083;BME280;13848;49.018;12.078;2023-12-28T06:06:24;97954.78;;;1.18;100.00
26083;BME280;13848;49.018;12.078;2023-12-28T06:08:51;97953.56;;;1.04;100.00
26083;BME280;13848;49.018;12.078;2023-12-28T06:11:17;97952.63;;;0.96;100.00
26083;BME280;13848;49.018;12.078;2023-12-28T06:13:43;97947.38;;;1.04;100.00
26083;BME280;13848;49.018;12.078;2023-12-28T06:16:09;97937.09;;;1.01;100.00
26083;BME280;13848;49.018;12.078;2023-12-28T06:18:35;97933.19;;;1.13;100.00
26083;BME280;13848;49.018;12.078;2023-12-28T06:21:01;97935.56;;;0.98;100.00
26083;BME280;13848;49.018;12.078;2023-12-28T06:23:27;97942.19;;;1.20;100.00
26083;BME280;13848;49.018;12.078;2023-12-28T06:25:54;97964.06;;;1.14;100.00
26083;BME280;13848;49.018;12.078;2023-12-28T06:28:20;97964.22;;;1.13;100.00
26083;BME280;13848;49.018;12.078;2023-12-28T06:30:46;97959.91;;;1.12;100.00
26083;BME280;13848;49.018;12.078;2023-12-28T06:33:12;97954.69;;;1.02;100.00
26083;BME280;13848;49.018;12.078;2023-12-28T06:35:38;97966.03;;;1.12;100.00
26083;BME280;13848;49.018;12.078;2023-12-28T06:38:03;97981.28;;;1.10;100.00
26083;BME280;13848;49.018;12.078;2023-12-28T06:40:29;97962.38;;;1.13;100.00
26083;BME280;13848;49.018;12.078;2023-12-28T06:42:57;97960.41;;;1.15;100.00
26083;BME280;13848;49.018;12.078;2023-12-28T06:45:23;97970.16;;;1.06;100.00
26083;BME280;13848;49.018;12.078;2023-12-28T06:47:49;97979.00;;;1.15;100.00
26083;BME280;13848;49.018;12.078;2023-12-28T06:50:14;97984.22;;;1.25;100.00
26083;BME280;13848;49.018;12.078;2023-12-28T06:52:40;97986.03;;;1.24;100.00
26083;BME280;13848;49.018;12.078;2023-12-28T06:55:07;97999.34;;;1.06;100.00
26083;BME280;13848;49.018;12.078;2023-12-28T06:57:33;97993.41;;;1.13;100.00
26083;BME280;13848;49.018;12.078;2023-12-28T07:00:00;97995.75;;;1.33;100.00
26083;BME280;13848;49.018;12.078;2023-12-28T07:02:26;98000.09;;;1.43;100.00
26083;BME280;13848;49.018;12.078;2023-12-28T07:04:52;97993.00;;;1.25;100.00
26083;BME280;13848;49.018;12.078;2023-12-28T07:07:18;98002.28;;;1.21;100.00
26083;BME280;13848;49.018;12.078;2023-12-28T07:09:43;97984.41;;;1.31;100.00
26083;BME280;13848;49.018;12.078;2023-12-28T07:12:09;97995.28;;;1.20;100.00
26083;BME280;13848;49.018;12.078;2023-12-28T07:14:35;98008.94;;;1.25;100.00
26083;BME280;13848;49.018;12.078;2023-12-28T07:17:03;97997.78;;;1.40;100.00
26083;BME280;13848;49.018;12.078;2023-12-28T07:19:29;98001.13;;;1.50;100.00
26083;BME280;13848;49.018;12.078;2023-12-28T07:21:55;97999.72;;;1.38;100.00
26083;BME280;13848;49.018;12.078;2023-12-28T07:24:21;98004.16;;;1.55;100.00
26083;BME280;13848;49.018;12.078;2023-12-28T07:26:47;98009.47;;;1.55;99.90
26083;BME280;13848;49.018;12.078;2023-12-28T07:29:13;98004.53;;;1.60;100.00
26083;BME280;13848;49.018;12.078;2023-12-28T07:31:39;98005.63;;;1.49;99.89
26083;BME280;13848;49.018;12.078;2023-12-28T07:34:06;98007.03;;;1.36;100.00
26083;BME280;13848;49.018;12.078;2023-12-28T07:36:32;98007.06;;;1.44;100.00
26083;BME280;13848;49.018;12.078;2023-12-28T07:38:58;98010.84;;;1.59;100.00
26083;BME280;13848;49.018;12.078;2023-12-28T07:41:24;98013.84;;;1.64;99.60
26083;BME280;13848;49.018;12.078;2023-12-28T07:43:49;98003.25;;;1.72;99.61
26083;BME280;13848;49.018;12.078;2023-12-28T07:46:15;98017.56;;;1.79;99.66
26083;BME280;13848;49.018;12.078;2023-12-28T07:48:41;98014.34;;;1.94;98.82
26083;BME280;13848;49.018;12.078;2023-12-28T07:51:09;98033.88;;;1.84;99.12
26083;BME280;13848;49.018;12.078;2023-12-28T07:53:34;98023.34;;;2.01;97.27
26083;BME280;13848;49.018;12.078;2023-12-28T07:56:00;98016.63;;;1.89;97.86
26083;BME280;13848;49.018;12.078;2023-12-28T07:58:26;98024.34;;;2.00;97.61
26083;BME280;13848;49.018;12.078;2023-12-28T08:00:52;98028.31;;;1.96;97.71
26083;BME280;13848;49.018;12.078;2023-12-28T08:03:18;98022.69;;;1.99;98.04
26083;BME280;13848;49.018;12.078;2023-12-28T08:05:44;98021.41;;;2.11;97.61
26083;BME280;13848;49.018;12.078;2023-12-28T08:08:11;98023.44;;;2.25;96.27
26083;BME280;13848;49.018;12.078;2023-12-28T08:10:37;98026.56;;;2.12;97.11
26083;BME280;13848;49.018;12.078;2023-12-28T08:13:03;98020.38;;;2.04;97.43
26083;BME280;13848;49.018;12.078;2023-12-28T08:15:29;98012.75;;;2.09;98.16
26083;BME280;13848;49.018;12.078;2023-12-28T08:17:55;97993.44;;;1.99;97.51
26083;BME280;13848;49.018;12.078;2023-12-28T08:20:21;98004.09;;;2.07;97.53
26083;BME280;13848;49.018;12.078;2023-12-28T08:22:47;98017.47;;;2.31;97.13
26083;BME280;13848;49.018;12.078;2023-12-28T08:25:14;98010.88;;;2.44;95.12
26083;BME280;13848;49.018;12.078;2023-12-28T08:27:40;98011.84;;;2.34;95.50
26083;BME280;13848;49.018;12.078;2023-12-28T08:30:07;98014.78;;;2.23;96.26
26083;BME280;13848;49.018;12.078;2023-12-28T08:32:33;98013.19;;;2.38;95.67
26083;BME280;13848;49.018;12.078;2023-12-28T08:34:59;98021.53;;;2.52;94.50
26083;BME280;13848;49.018;12.078;2023-12-28T08:37:25;98005.59;;;2.76;93.16
26083;BME280;13848;49.018;12.078;2023-12-28T08:39:51;98014.91;;;2.72;92.38
26083;BME280;13848;49.018;12.078;2023-12-28T08:42:18;98031.88;;;2.63;92.87
26083;BME280;13848;49.018;12.078;2023-12-28T08:44:44;98032.72;;;2.63;93.10
26083;BME280;13848;49.018;12.078;2023-12-28T08:47:10;98028.22;;;2.64;91.83
26083;BME280;13848;49.018;12.078;2023-12-28T08:49:36;98035.19;;;2.65;92.70
26083;BME280;13848;49.018;12.078;2023-12-28T08:52:02;98050.16;;;2.50;92.20
26083;BME280;13848;49.018;12.078;2023-12-28T08:54:28;98048.81;;;2.54;93.00
26083;BME280;13848;49.018;12.078;2023-12-28T08:56:54;98039.88;;;2.71;91.88
26083;BME280;13848;49.018;12.078;2023-12-28T08:59:21;98049.84;;;2.61;92.33
26083;BME280;13848;49.018;12.078;2023-12-28T09:01:47;98040.03;;;2.70;92.18
26083;BME280;13848;49.018;12.078;2023-12-28T09:04:13;98042.91;;;2.84;92.39
26083;BME280;13848;49.018;12.078;2023-12-28T09:06:39;98045.00;;;2.64;92.52
26083;BME280;13848;49.018;12.078;2023-12-28T09:09:05;98047.19;;;2.69;93.49
26083;BME280;13848;49.018;12.078;2023-12-28T09:11:31;98045.88;;;2.81;93.28
26083;BME280;13848;49.018;12.078;2023-12-28T09:13:57;98045.72;;;2.83;92.76
26083;BME280;13848;49.018;12.078;2023-12-28T09:16:24;98049.53;;;2.80;92.81
26083;BME280;13848;49.018;12.078;2023-12-28T09:18:50;98054.88;;;2.80;92.54
26083;BME280;13848;49.018;12.078;2023-12-28T09:21:16;98050.25;;;2.90;92.92
26083;BME280;13848;49.018;12.078;2023-12-28T09:23:42;98062.56;;;2.91;92.48
26083;BME280;13848;49.018;12.078;2023-12-28T09:26:08;98062.88;;;2.88;92.74
26083;BME280;13848;49.018;12.078;2023-12-28T09:28:34;98068.88;;;2.99;92.36
26083;BME280;13848;49.018;12.078;2023-12-28T09:31:00;98065.53;;;2.80;93.28
26083;BME280;13848;49.018;12.078;2023-12-28T09:33:28;98061.84;;;2.81;92.63
26083;BME280;13848;49.018;12.078;2023-12-28T09:35:54;98050.91;;;3.01;92.61
26083;BME280;13848;49.018;12.078;2023-12-28T09:38:20;98042.38;;;2.89;92.73
26083;BME280;13848;49.018;12.078;2023-12-28T09:40:45;98042.25;;;3.15;92.28
26083;BME280;13848;49.018;12.078;2023-12-28T09:43:15;98052.56;;;3.18;91.66
26083;BME280;13848;49.018;12.078;2023-12-28T09:45:46;98041.75;;;3.11;92.01
26083;BME280;13848;49.018;12.078;2023-12-28T09:48:12;98032.25;;;2.92;93.17
26083;BME280;13848;49.018;12.078;2023-12-28T09:50:39;98037.59;;;2.92;93.51
26083;BME280;13848;49.018;12.078;2023-12-28T09:53:05;98029.91;;;2.81;93.31
26083;BME280;13848;49.018;12.078;2023-12-28T09:55:31;98022.25;;;2.86;94.34
26083;BME280;13848;49.018;12.078;2023-12-28T09:57:57;98020.13;;;2.90;94.45
26083;BME280;13848;49.018;12.078;2023-12-28T10:00:25;98022.63;;;3.16;93.52
26083;BME280;13848;49.018;12.078;2023-12-28T10:02:52;98033.28;;;3.16;93.88
26083;BME280;13848;49.018;12.078;2023-12-28T10:05:18;98038.59;;;3.16;93.85
26083;BME280;13848;49.018;12.078;2023-12-28T10:07:47;98028.94;;;3.23;93.01
26083;BME280;13848;49.018;12.078;2023-12-28T10:10:13;98029.63;;;3.25;93.50
26083;BME280;13848;49.018;12.078;2023-12-28T10:12:39;98010.28;;;3.15;93.41
26083;BME280;13848;49.018;12.078;2023-12-28T10:15:06;98017.78;;;3.11;93.22
26083;BME280;13848;49.018;12.078;2023-12-28T10:17:32;98016.13;;;3.27;92.59
26083;BME280;13848;49.018;12.078;2023-12-28T10:19:58;98015.94;;;3.12;92.86
26083;BME280;13848;49.018;12.078;2023-12-28T10:22:24;98012.63;;;3.26;92.37
26083;BME280;13848;49.018;12.078;2023-12-28T10:24:51;98019.94;;;3.24;92.79
26083;BME280;13848;49.018;12.078;2023-12-28T10:27:18;98011.59;;;3.35;92.64
26083;BME280;13848;49.018;12.078;2023-12-28T10:29:44;98011.31;;;3.14;92.62
26083;BME280;13848;49.018;12.078;2023-12-28T10:32:09;98001.28;;;3.16;92.77
26083;BME280;13848;49.018;12.078;2023-12-28T10:34:35;97995.28;;;3.30;92.28
26083;BME280;13848;49.018;12.078;2023-12-28T10:37:02;97986.94;;;3.41;91.51
26083;BME280;13848;49.018;12.078;2023-12-28T10:39:31;97974.13;;;3.29;92.26
26083;BME280;13848;49.018;12.078;2023-12-28T10:41:59;97973.47;;;3.18;93.80
26083;BME280;13848;49.018;12.078;2023-12-28T10:44:31;97983.31;;;3.18;94.48
26083;BME280;13848;49.018;12.078;2023-12-28T10:47:02;97979.66;;;3.27;93.28
26083;BME280;13848;49.018;12.078;2023-12-28T10:49:33;97982.31;;;3.27;93.93
26083;BME280;13848;49.018;12.078;2023-12-28T10:52:03;97984.59;;;3.55;92.40
26083;BME280;13848;49.018;12.078;2023-12-28T10:54:37;97971.31;;;3.38;92.79
26083;BME280;13848;49.018;12.078;2023-12-28T10:57:09;97967.97;;;3.28;92.86
26083;BME280;13848;49.018;12.078;2023-12-28T10:59:39;97966.47;;;3.34;93.48
26083;BME280;13848;49.018;12.078;2023-12-28T11:02:09;97972.63;;;3.34;93.33
26083;BME280;13848;49.018;12.078;2023-12-28T11:04:40;97961.97;;;3.34;92.72
26083;BME280;13848;49.018;12.078;2023-12-28T11:07:07;97960.47;;;3.40;92.98
26083;BME280;13848;49.018;12.078;2023-12-28T11:09:35;97955.13;;;3.40;93.47
26083;BME280;13848;49.018;12.078;2023-12-28T11:12:02;97952.28;;;3.41;93.15
26083;BME280;13848;49.018;12.078;2023-12-28T11:14:33;97946.78;;;3.51;92.32
26083;BME280;13848;49.018;12.078;2023-12-28T11:16:59;97945.59;;;3.62;92.83
26083;BME280;13848;49.018;12.078;2023-12-28T11:19:26;97933.50;;;3.43;92.87
26083;BME280;13848;49.018;12.078;2023-12-28T11:21:53;97939.97;;;3.49;92.76
26083;BME280;13848;49.018;12.078;2023-12-28T11:24:20;97932.31;;;3.45;93.12
26083;BME280;13848;49.018;12.078;2023-12-28T11:26:52;97933.28;;;3.53;93.12
26083;BME280;13848;49.018;12.078;2023-12-28T11:29:19;97932.94;;;3.56;92.68
26083;BME280;13848;49.018;12.078;2023-12-28T11:31:50;97927.91;;;3.69;92.09
26083;BME280;13848;49.018;12.078;2023-12-28T11:34:16;97927.22;;;3.75;91.92
26083;BME280;13848;49.018;12.078;2023-12-28T11:36:46;97921.47;;;3.55;92.48
26083;BME280;13848;49.018;12.078;2023-12-28T11:39:14;97920.22;;;3.74;91.92
26083;BME280;13848;49.018;12.078;2023-12-28T11:41:45;97918.56;;;3.73;91.54
26083;BME280;13848;49.018;12.078;2023-12-28T11:44:11;97921.53;;;3.78;91.66
26083;BME280;13848;49.018;12.078;2023-12-28T11:46:37;97927.56;;;3.64;91.99
26083;BME280;13848;49.018;12.078;2023-12-28T11:49:05;97923.69;;;3.83;91.37
26083;BME280;13848;49.018;12.078;2023-12-28T11:51:31;97928.16;;;3.82;90.26
26083;BME280;13848;49.018;12.078;2023-12-28T11:53:58;97920.53;;;3.79;91.22
26083;BME280;13848;49.018;12.078;2023-12-28T11:56:25;97927.34;;;3.82;91.16
26083;BME280;13848;49.018;12.078;2023-12-28T11:58:51;97930.13;;;3.96;89.94
26083;BME280;13848;49.018;12.078;2023-12-28T12:01:17;97936.41;;;4.04;89.64
26083;BME280;13848;49.018;12.078;2023-12-28T12:03:43;97943.94;;;4.00;89.42
26083;BME280;13848;49.018;12.078;2023-12-28T12:06:10;97944.25;;;4.05;89.03
26083;BME280;13848;49.018;12.078;2023-12-28T12:08:36;97940.75;;;4.05;89.99
26083;BME280;13848;49.018;12.078;2023-12-28T12:11:03;97951.28;;;4.06;89.27
26083;BME280;13848;49.018;12.078;2023-12-28T12:13:30;97959.56;;;4.11;88.88
26083;BME280;13848;49.018;12.078;2023-12-28T12:15:58;97941.88;;;4.18;88.25
26083;BME280;13848;49.018;12.078;2023-12-28T12:18:24;97950.00;;;4.25;88.53
26083;BME280;13848;49.018;12.078;2023-12-28T12:20:50;97943.03;;;4.16;88.14
26083;BME280;13848;49.018;12.078;2023-12-28T12:23:17;97937.66;;;4.24;87.54
26083;BME280;13848;49.018;12.078;2023-12-28T12:25:43;97937.31;;;4.27;87.35
26083;BME280;13848;49.018;12.078;2023-12-28T12:28:09;97924.13;;;4.25;87.78
26083;BME280;13848;49.018;12.078;2023-12-28T12:30:35;97935.63;;;4.26;87.15
26083;BME280;13848;49.018;12.078;2023-12-28T12:33:01;97929.97;;;4.29;86.95
26083;BME280;13848;49.018;12.078;2023-12-28T12:35:28;97923.63;;;4.30;87.75
26083;BME280;13848;49.018;12.078;2023-12-28T12:37:54;97925.22;;;4.39;87.27
26083;BME280;13848;49.018;12.078;2023-12-28T12:40:22;97920.28;;;4.28;86.60
26083;BME280;13848;49.018;12.078;2023-12-28T12:42:54;97917.03;;;4.41;86.75
26083;BME280;13848;49.018;12.078;2023-12-28T12:45:20;97919.56;;;4.34;87.83
26083;BME280;13848;49.018;12.078;2023-12-28T12:47:46;97915.44;;;4.54;85.40
26083;BME280;13848;49.018;12.078;2023-12-28T12:50:12;97921.19;;;4.43;85.51
26083;BME280;13848;49.018;12.078;2023-12-28T12:52:38;97929.00;;;4.45;86.18